sensor_id;sensor_type;location;lat;lon;timestamp;P1;durP1;ratioP1;P2;durP2;ratioP2
16039;SDS011;8124;48.634;8.120;2023-07-08T00:00:56;49.08;;;43.67;;
16039;SDS011;8124;48.634;8.120;2023-07-08T00:05:59;49.55;;;42.95;;
16039;SDS011;8124;48.634;8.120;2023-07-08T00:11:07;47.63;;;42.45;;
16039;SDS011;8124;48.634;8.120;2023-07-08T00:16:13;48.90;;;43.30;;
16039;SDS011;8124;48.634;8.120;2023-07-08T00:21:18;47.63;;;42.45;;
16039;SDS011;8124;48.634;8.120;2023-07-08T00:26:22;47.83;;;42.35;;
16039;SDS011;8124;48.634;8.120;2023-07-08T00:31:28;50.47;;;43.05;;
16039;SDS011;8124;48.634;8.120;2023-07-08T00:36:33;48.30;;;43.00;;
16039;SDS011;8124;48.634;8.120;2023-07-08T00:41:38;47.95;;;42.75;;
16039;SDS011;8124;48.634;8.120;2023-07-08T00:46:48;49.05;;;43.53;;
16039;SDS011;8124;48.634;8.120;2023-07-08T00:57:18;49.85;;;43.10;;
16039;SDS011;8124;48.634;8.120;2023-07-08T01:02:25;51.15;;;43.40;;
16039;SDS011;8124;48.634;8.120;2023-07-08T01:07:31;49.63;;;43.20;;
16039;SDS011;8124;48.634;8.120;2023-07-08T01:12:38;50.25;;;43.35;;
16039;SDS011;8124;48.634;8.120;2023-07-08T01:17:46;49.75;;;43.55;;
16039;SDS011;8124;48.634;8.120;2023-07-08T01:22:56;48.97;;;43.05;;
16039;SDS011;8124;48.634;8.120;2023-07-08T01:27:59;51.42;;;44.58;;
16039;SDS011;8124;48.634;8.120;2023-07-08T01:33:04;50.30;;;43.08;;
16039;SDS011;8124;48.634;8.120;2023-07-08T01:38:10;48.75;;;42.42;;
16039;SDS011;8124;48.634;8.120;2023-07-08T01:43:16;50.00;;;42.88;;
16039;SDS011;8124;48.634;8.120;2023-07-08T01:48:20;48.17;;;42.83;;
16039;SDS011;8124;48.634;8.120;2023-07-08T01:53:32;50.83;;;43.33;;
16039;SDS011;8124;48.634;8.120;2023-07-08T01:58:37;50.88;;;42.58;;
16039;SDS011;8124;48.634;8.120;2023-07-08T02:03:40;47.90;;;42.60;;
16039;SDS011;8124;48.634;8.120;2023-07-08T02:08:47;49.08;;;42.33;;
16039;SDS011;8124;48.634;8.120;2023-07-08T02:13:51;48.05;;;42.63;;
16039;SDS011;8124;48.634;8.120;2023-07-08T02:18:54;49.78;;;42.65;;
16039;SDS011;8124;48.634;8.120;2023-07-08T02:24:00;48.92;;;42.67;;
16039;SDS011;8124;48.634;8.120;2023-07-08T02:29:03;47.65;;;42.42;;
16039;SDS011;8124;48.634;8.120;2023-07-08T02:34:06;48.40;;;42.13;;
16039;SDS011;8124;48.634;8.120;2023-07-08T02:39:10;48.45;;;41.92;;
16039;SDS011;8124;48.634;8.120;2023-07-08T02:44:14;49.35;;;42.55;;
16039;SDS011;8124;48.634;8.120;2023-07-08T02:49:17;47.95;;;42.65;;
16039;SDS011;8124;48.634;8.120;2023-07-08T02:54:21;47.22;;;42.03;;
16039;SDS011;8124;48.634;8.120;2023-07-08T02:59:24;47.88;;;42.13;;
16039;SDS011;8124;48.634;8.120;2023-07-08T03:04:29;48.13;;;42.03;;
16039;SDS011;8124;48.634;8.120;2023-07-08T03:09:33;47.90;;;42.15;;
16039;SDS011;8124;48.634;8.120;2023-07-08T03:14:36;48.15;;;42.20;;
16039;SDS011;8124;48.634;8.120;2023-07-08T03:19:39;48.22;;;42.22;;
16039;SDS011;8124;48.634;8.120;2023-07-08T03:24:44;50.20;;;42.75;;
16039;SDS011;8124;48.634;8.120;2023-07-08T03:29:52;47.13;;;41.95;;
16039;SDS011;8124;48.634;8.120;2023-07-08T03:34:55;48.60;;;41.88;;
16039;SDS011;8124;48.634;8.120;2023-07-08T03:40:00;47.33;;;41.45;;
16039;SDS011;8124;48.634;8.120;2023-07-08T03:45:03;47.25;;;41.88;;
16039;SDS011;8124;48.634;8.120;2023-07-08T03:50:08;47.97;;;42.38;;
16039;SDS011;8124;48.634;8.120;2023-07-08T03:55:20;47.40;;;42.17;;
16039;SDS011;8124;48.634;8.120;2023-07-08T04:00:24;48.92;;;42.58;;
16039;SDS011;8124;48.634;8.120;2023-07-08T04:05:27;50.47;;;42.75;;
16039;SDS011;8124;48.634;8.120;2023-07-08T04:10:31;47.40;;;41.58;;
16039;SDS011;8124;48.634;8.120;2023-07-08T04:15:34;49.83;;;41.95;;
16039;SDS011;8124;48.634;8.120;2023-07-08T04:20:37;46.53;;;41.25;;
16039;SDS011;8124;48.634;8.120;2023-07-08T04:25:41;47.67;;;41.35;;
16039;SDS011;8124;48.634;8.120;2023-07-08T04:30:44;52.38;;;42.47;;
16039;SDS011;8124;48.634;8.120;2023-07-08T04:35:48;50.55;;;41.72;;
16039;SDS011;8124;48.634;8.120;2023-07-08T04:40:52;49.15;;;42.35;;
16039;SDS011;8124;48.634;8.120;2023-07-08T04:45:56;49.25;;;42.85;;
16039;SDS011;8124;48.634;8.120;2023-07-08T04:50:59;48.38;;;41.78;;
16039;SDS011;8124;48.634;8.120;2023-07-08T04:56:04;47.70;;;41.22;;
16039;SDS011;8124;48.634;8.120;2023-07-08T05:01:07;48.45;;;41.85;;
16039;SDS011;8124;48.634;8.120;2023-07-08T05:06:10;47.15;;;41.95;;
16039;SDS011;8124;48.634;8.120;2023-07-08T05:11:14;48.42;;;41.67;;
16039;SDS011;8124;48.634;8.120;2023-07-08T05:16:17;47.35;;;40.95;;
16039;SDS011;8124;48.634;8.120;2023-07-08T05:21:20;47.45;;;40.58;;
16039;SDS011;8124;48.634;8.120;2023-07-08T05:26:25;45.47;;;40.30;;
16039;SDS011;8124;48.634;8.120;2023-07-08T05:31:28;47.60;;;40.75;;
16039;SDS011;8124;48.634;8.120;2023-07-08T05:36:48;45.25;;;40.30;;
16039;SDS011;8124;48.634;8.120;2023-07-08T05:41:52;44.83;;;40.00;;
16039;SDS011;8124;48.634;8.120;2023-07-08T05:46:55;47.05;;;39.92;;
16039;SDS011;8124;48.634;8.120;2023-07-08T05:51:58;47.95;;;40.22;;
16039;SDS011;8124;48.634;8.120;2023-07-08T05:57:09;44.97;;;40.17;;
16039;SDS011;8124;48.634;8.120;2023-07-08T06:02:13;45.63;;;40.53;;
16039;SDS011;8124;48.634;8.120;2023-07-08T06:07:16;48.60;;;43.27;;
16039;SDS011;8124;48.634;8.120;2023-07-08T06:12:20;48.42;;;40.60;;
16039;SDS011;8124;48.634;8.120;2023-07-08T06:17:23;46.47;;;40.47;;
16039;SDS011;8124;48.634;8.120;2023-07-08T06:22:26;45.47;;;40.58;;
16039;SDS011;8124;48.634;8.120;2023-07-08T06:27:48;47.67;;;40.78;;
16039;SDS011;8124;48.634;8.120;2023-07-08T06:32:54;45.20;;;40.35;;
16039;SDS011;8124;48.634;8.120;2023-07-08T06:38:01;45.05;;;40.17;;
16039;SDS011;8124;48.634;8.120;2023-07-08T06:43:05;45.00;;;40.03;;
16039;SDS011;8124;48.634;8.120;2023-07-08T06:48:21;45.42;;;40.47;;
16039;SDS011;8124;48.634;8.120;2023-07-08T06:53:25;45.65;;;40.65;;
16039;SDS011;8124;48.634;8.120;2023-07-08T06:58:29;45.28;;;40.42;;
16039;SDS011;8124;48.634;8.120;2023-07-08T07:03:32;45.25;;;40.33;;
16039;SDS011;8124;48.634;8.120;2023-07-08T07:08:35;49.55;;;40.80;;
16039;SDS011;8124;48.634;8.120;2023-07-08T07:13:40;46.10;;;41.10;;
16039;SDS011;8124;48.634;8.120;2023-07-08T07:18:43;48.00;;;41.45;;
16039;SDS011;8124;48.634;8.120;2023-07-08T07:23:46;46.25;;;40.95;;
16039;SDS011;8124;48.634;8.120;2023-07-08T07:28:50;45.42;;;40.58;;
16039;SDS011;8124;48.634;8.120;2023-07-08T07:33:53;46.35;;;41.05;;
16039;SDS011;8124;48.634;8.120;2023-07-08T07:38:56;46.25;;;41.25;;
16039;SDS011;8124;48.634;8.120;2023-07-08T07:44:01;46.08;;;41.08;;
16039;SDS011;8124;48.634;8.120;2023-07-08T07:49:04;46.58;;;40.88;;
16039;SDS011;8124;48.634;8.120;2023-07-08T07:54:07;46.05;;;41.15;;
16039;SDS011;8124;48.634;8.120;2023-07-08T07:59:11;45.45;;;40.55;;
16039;SDS011;8124;48.634;8.120;2023-07-08T08:04:14;46.40;;;41.38;;
16039;SDS011;8124;48.634;8.120;2023-07-08T08:09:17;49.28;;;41.30;;
16039;SDS011;8124;48.634;8.120;2023-07-08T08:14:22;46.28;;;41.15;;
16039;SDS011;8124;48.634;8.120;2023-07-08T08:19:25;46.50;;;41.50;;
16039;SDS011;8124;48.634;8.120;2023-07-08T08:24:28;46.75;;;41.42;;
16039;SDS011;8124;48.634;8.120;2023-07-08T08:29:32;46.28;;;41.28;;
16039;SDS011;8124;48.634;8.120;2023-07-08T08:34:35;47.58;;;41.28;;
16039;SDS011;8124;48.634;8.120;2023-07-08T08:39:38;46.22;;;41.25;;
16039;SDS011;8124;48.634;8.120;2023-07-08T08:44:42;46.22;;;41.05;;
16039;SDS011;8124;48.634;8.120;2023-07-08T08:49:48;46.28;;;41.28;;
16039;SDS011;8124;48.634;8.120;2023-07-08T08:54:56;46.55;;;41.55;;
16039;SDS011;8124;48.634;8.120;2023-07-08T09:00:01;46.00;;;41.05;;
16039;SDS011;8124;48.634;8.120;2023-07-08T09:05:05;46.38;;;41.33;;
16039;SDS011;8124;48.634;8.120;2023-07-08T09:10:12;45.72;;;40.88;;
16039;SDS011;8124;48.634;8.120;2023-07-08T09:15:25;46.33;;;41.42;;
16039;SDS011;8124;48.634;8.120;2023-07-08T09:20:28;46.80;;;41.80;;
16039;SDS011;8124;48.634;8.120;2023-07-08T09:25:32;46.72;;;41.72;;
16039;SDS011;8124;48.634;8.120;2023-07-08T09:30:39;46.55;;;41.30;;
16039;SDS011;8124;48.634;8.120;2023-07-08T09:35:43;46.50;;;41.60;;
16039;SDS011;8124;48.634;8.120;2023-07-08T09:40:49;46.92;;;41.92;;
16039;SDS011;8124;48.634;8.120;2023-07-08T09:45:57;46.88;;;41.67;;
16039;SDS011;8124;48.634;8.120;2023-07-08T09:51:01;46.67;;;41.58;;
16039;SDS011;8124;48.634;8.120;2023-07-08T09:56:04;47.83;;;42.10;;
16039;SDS011;8124;48.634;8.120;2023-07-08T10:01:12;46.42;;;41.45;;
16039;SDS011;8124;48.634;8.120;2023-07-08T10:06:20;47.63;;;41.50;;
16039;SDS011;8124;48.634;8.120;2023-07-08T10:11:28;46.38;;;41.53;;
16039;SDS011;8124;48.634;8.120;2023-07-08T10:16:33;46.45;;;41.45;;
16039;SDS011;8124;48.634;8.120;2023-07-08T10:21:39;47.70;;;42.63;;
16039;SDS011;8124;48.634;8.120;2023-07-08T10:26:49;46.47;;;41.58;;
16039;SDS011;8124;48.634;8.120;2023-07-08T10:32:06;47.08;;;42.08;;
16039;SDS011;8124;48.634;8.120;2023-07-08T10:37:19;46.80;;;41.80;;
16039;SDS011;8124;48.634;8.120;2023-07-08T10:42:33;46.88;;;41.92;;
16039;SDS011;8124;48.634;8.120;2023-07-08T10:47:55;46.70;;;41.67;;
16039;SDS011;8124;48.634;8.120;2023-07-08T10:53:17;48.28;;;43.08;;
16039;SDS011;8124;48.634;8.120;2023-07-08T10:58:41;47.88;;;42.78;;
16039;SDS011;8124;48.634;8.120;2023-07-08T11:04:11;46.95;;;42.05;;
16039;SDS011;8124;48.634;8.120;2023-07-08T11:09:28;47.35;;;42.15;;
16039;SDS011;8124;48.634;8.120;2023-07-08T11:14:41;47.08;;;42.05;;
16039;SDS011;8124;48.634;8.120;2023-07-08T11:19:51;48.10;;;42.78;;
16039;SDS011;8124;48.634;8.120;2023-07-08T11:24:59;47.22;;;42.15;;
16039;SDS011;8124;48.634;8.120;2023-07-08T11:30:06;46.92;;;42.03;;
16039;SDS011;8124;48.634;8.120;2023-07-08T11:35:18;47.58;;;42.50;;
16039;SDS011;8124;48.634;8.120;2023-07-08T11:40:23;48.17;;;42.63;;
16039;SDS011;8124;48.634;8.120;2023-07-08T11:45:27;47.50;;;42.15;;
16039;SDS011;8124;48.634;8.120;2023-07-08T11:50:37;47.65;;;42.55;;
16039;SDS011;8124;48.634;8.120;2023-07-08T11:55:43;47.60;;;42.60;;
16039;SDS011;8124;48.634;8.120;2023-07-08T12:00:52;47.53;;;42.53;;
16039;SDS011;8124;48.634;8.120;2023-07-08T12:06:03;47.75;;;42.65;;
16039;SDS011;8124;48.634;8.120;2023-07-08T12:11:45;47.58;;;42.55;;
16039;SDS011;8124;48.634;8.120;2023-07-08T12:16:50;47.45;;;42.47;;
16039;SDS011;8124;48.634;8.120;2023-07-08T12:21:53;47.47;;;42.47;;
16039;SDS011;8124;48.634;8.120;2023-07-08T12:26:57;48.88;;;43.25;;
16039;SDS011;8124;48.634;8.120;2023-07-08T12:32:00;47.88;;;42.67;;
16039;SDS011;8124;48.634;8.120;2023-07-08T12:37:05;48.08;;;43.00;;
16039;SDS011;8124;48.634;8.120;2023-07-08T12:42:16;47.45;;;42.53;;
16039;SDS011;8124;48.634;8.120;2023-07-08T12:47:19;47.90;;;42.90;;
16039;SDS011;8124;48.634;8.120;2023-07-08T12:52:23;48.28;;;43.28;;
16039;SDS011;8124;48.634;8.120;2023-07-08T12:57:27;47.53;;;42.53;;
16039;SDS011;8124;48.634;8.120;2023-07-08T13:02:30;48.88;;;43.80;;
16039;SDS011;8124;48.634;8.120;2023-07-08T13:07:35;48.17;;;42.78;;
16039;SDS011;8124;48.634;8.120;2023-07-08T13:12:41;47.67;;;42.70;;
16039;SDS011;8124;48.634;8.120;2023-07-08T13:17:46;47.63;;;42.60;;
16039;SDS011;8124;48.634;8.120;2023-07-08T13:22:51;47.70;;;42.53;;
16039;SDS011;8124;48.634;8.120;2023-07-08T13:28:00;47.95;;;42.80;;
16039;SDS011;8124;48.634;8.120;2023-07-08T13:33:04;47.90;;;42.70;;
16039;SDS011;8124;48.634;8.120;2023-07-08T13:38:19;48.05;;;42.80;;
16039;SDS011;8124;48.634;8.120;2023-07-08T13:43:29;47.95;;;42.75;;
16039;SDS011;8124;48.634;8.120;2023-07-08T13:48:36;47.67;;;42.67;;
16039;SDS011;8124;48.634;8.120;2023-07-08T13:53:46;49.13;;;43.38;;
16039;SDS011;8124;48.634;8.120;2023-07-08T13:59:53;47.58;;;42.35;;
16039;SDS011;8124;48.634;8.120;2023-07-08T14:04:57;47.70;;;42.70;;
16039;SDS011;8124;48.634;8.120;2023-07-08T14:10:03;48.42;;;43.13;;
16039;SDS011;8124;48.634;8.120;2023-07-08T14:15:11;48.08;;;42.95;;
16039;SDS011;8124;48.634;8.120;2023-07-08T14:20:15;48.10;;;42.90;;
16039;SDS011;8124;48.634;8.120;2023-07-08T14:25:20;47.75;;;42.65;;
16039;SDS011;8124;48.634;8.120;2023-07-08T14:30:26;48.47;;;43.47;;
16039;SDS011;8124;48.634;8.120;2023-07-08T14:35:29;48.15;;;42.75;;
16039;SDS011;8124;48.634;8.120;2023-07-08T14:40:33;48.30;;;43.20;;
16039;SDS011;8124;48.634;8.120;2023-07-08T14:45:39;48.35;;;43.08;;
16039;SDS011;8124;48.634;8.120;2023-07-08T14:50:46;48.05;;;43.05;;
16039;SDS011;8124;48.634;8.120;2023-07-08T14:55:49;49.38;;;43.35;;
16039;SDS011;8124;48.634;8.120;2023-07-08T15:00:55;48.38;;;43.25;;
16039;SDS011;8124;48.634;8.120;2023-07-08T15:06:00;48.55;;;43.03;;
16039;SDS011;8124;48.634;8.120;2023-07-08T15:11:04;48.40;;;43.13;;
16039;SDS011;8124;48.634;8.120;2023-07-08T15:16:10;47.72;;;42.78;;
16039;SDS011;8124;48.634;8.120;2023-07-08T15:21:15;47.92;;;42.72;;
16039;SDS011;8124;48.634;8.120;2023-07-08T15:26:18;48.75;;;43.28;;
16039;SDS011;8124;48.634;8.120;2023-07-08T15:31:23;48.08;;;42.95;;
16039;SDS011;8124;48.634;8.120;2023-07-08T15:36:28;49.08;;;43.15;;
16039;SDS011;8124;48.634;8.120;2023-07-08T15:41:32;48.33;;;43.00;;
16039;SDS011;8124;48.634;8.120;2023-07-08T15:46:37;48.60;;;43.55;;
16039;SDS011;8124;48.634;8.120;2023-07-08T15:51:43;49.67;;;43.22;;
16039;SDS011;8124;48.634;8.120;2023-07-08T15:56:50;49.70;;;43.72;;
16039;SDS011;8124;48.634;8.120;2023-07-08T16:01:57;48.22;;;43.05;;
16039;SDS011;8124;48.634;8.120;2023-07-08T16:07:21;49.75;;;43.33;;
16039;SDS011;8124;48.634;8.120;2023-07-08T16:12:24;48.78;;;43.60;;
16039;SDS011;8124;48.634;8.120;2023-07-08T16:17:28;48.90;;;43.80;;
16039;SDS011;8124;48.634;8.120;2023-07-08T16:22:35;55.70;;;43.55;;
16039;SDS011;8124;48.634;8.120;2023-07-08T16:27:38;48.95;;;43.65;;
16039;SDS011;8124;48.634;8.120;2023-07-08T16:32:43;51.30;;;43.85;;
16039;SDS011;8124;48.634;8.120;2023-07-08T16:37:46;49.15;;;43.90;;
16039;SDS011;8124;48.634;8.120;2023-07-08T16:42:51;48.80;;;43.65;;
16039;SDS011;8124;48.634;8.120;2023-07-08T16:47:58;48.65;;;43.35;;
16039;SDS011;8124;48.634;8.120;2023-07-08T16:53:01;49.08;;;43.95;;
16039;SDS011;8124;48.634;8.120;2023-07-08T16:58:04;49.45;;;44.25;;
16039;SDS011;8124;48.634;8.120;2023-07-08T17:03:08;48.88;;;43.38;;
16039;SDS011;8124;48.634;8.120;2023-07-08T17:08:15;49.72;;;43.85;;
16039;SDS011;8124;48.634;8.120;2023-07-08T17:13:19;49.80;;;43.63;;
16039;SDS011;8124;48.634;8.120;2023-07-08T17:18:23;48.80;;;43.70;;
16039;SDS011;8124;48.634;8.120;2023-07-08T17:23:27;49.28;;;44.00;;
16039;SDS011;8124;48.634;8.120;2023-07-08T17:28:30;49.22;;;44.13;;
16039;SDS011;8124;48.634;8.120;2023-07-08T17:33:34;49.03;;;43.83;;
16039;SDS011;8124;48.634;8.120;2023-07-08T17:38:42;48.90;;;43.88;;
16039;SDS011;8124;48.634;8.120;2023-07-08T17:43:47;49.28;;;44.08;;
16039;SDS011;8124;48.634;8.120;2023-07-08T17:48:51;49.40;;;44.13;;
16039;SDS011;8124;48.634;8.120;2023-07-08T17:53:54;48.75;;;43.75;;
16039;SDS011;8124;48.634;8.120;2023-07-08T17:58:57;49.35;;;44.25;;
16039;SDS011;8124;48.634;8.120;2023-07-08T18:04:02;49.35;;;44.15;;
16039;SDS011;8124;48.634;8.120;2023-07-08T18:10:24;49.00;;;43.72;;
16039;SDS011;8124;48.634;8.120;2023-07-08T18:17:30;49.95;;;44.65;;
16039;SDS011;8124;48.634;8.120;2023-07-08T18:28:33;49.47;;;44.28;;
16039;SDS011;8124;48.634;8.120;2023-07-08T18:33:36;49.17;;;43.75;;
16039;SDS011;8124;48.634;8.120;2023-07-08T18:38:39;49.25;;;44.10;;
16039;SDS011;8124;48.634;8.120;2023-07-08T18:43:44;49.45;;;44.25;;
16039;SDS011;8124;48.634;8.120;2023-07-08T18:48:47;49.50;;;44.28;;
16039;SDS011;8124;48.634;8.120;2023-07-08T18:53:51;49.60;;;44.40;;
16039;SDS011;8124;48.634;8.120;2023-07-08T18:58:55;49.20;;;44.10;;
16039;SDS011;8124;48.634;8.120;2023-07-08T19:03:58;48.70;;;43.70;;
16039;SDS011;8124;48.634;8.120;2023-07-08T19:09:02;50.30;;;44.42;;
16039;SDS011;8124;48.634;8.120;2023-07-08T19:14:10;49.85;;;44.50;;
16039;SDS011;8124;48.634;8.120;2023-07-08T19:19:15;51.28;;;44.20;;
16039;SDS011;8124;48.634;8.120;2023-07-08T19:24:18;49.22;;;43.83;;
16039;SDS011;8124;48.634;8.120;2023-07-08T19:29:39;49.15;;;43.97;;
16039;SDS011;8124;48.634;8.120;2023-07-08T19:34:42;49.75;;;44.55;;
16039;SDS011;8124;48.634;8.120;2023-07-08T19:39:46;49.92;;;44.50;;
16039;SDS011;8124;48.634;8.120;2023-07-08T19:44:50;49.30;;;44.03;;
16039;SDS011;8124;48.634;8.120;2023-07-08T19:49:53;49.67;;;44.38;;
16039;SDS011;8124;48.634;8.120;2023-07-08T19:54:56;49.58;;;44.25;;
16039;SDS011;8124;48.634;8.120;2023-07-08T20:00:02;48.97;;;43.78;;
16039;SDS011;8124;48.634;8.120;2023-07-08T20:05:17;49.78;;;44.58;;
16039;SDS011;8124;48.634;8.120;2023-07-08T20:10:20;49.50;;;44.17;;
16039;SDS011;8124;48.634;8.120;2023-07-08T20:15:25;49.08;;;43.88;;
16039;SDS011;8124;48.634;8.120;2023-07-08T20:20:29;49.85;;;44.53;;
16039;SDS011;8124;48.634;8.120;2023-07-08T20:25:32;48.70;;;43.65;;
16039;SDS011;8124;48.634;8.120;2023-07-08T20:30:37;47.97;;;42.88;;
16039;SDS011;8124;48.634;8.120;2023-07-08T20:35:40;48.83;;;43.53;;
16039;SDS011;8124;48.634;8.120;2023-07-08T20:40:44;49.83;;;43.63;;
16039;SDS011;8124;48.634;8.120;2023-07-08T20:45:48;48.35;;;43.35;;
16039;SDS011;8124;48.634;8.120;2023-07-08T20:50:55;48.45;;;43.35;;
16039;SDS011;8124;48.634;8.120;2023-07-08T20:55:59;48.63;;;43.33;;
16039;SDS011;8124;48.634;8.120;2023-07-08T21:01:03;48.50;;;43.45;;
16039;SDS011;8124;48.634;8.120;2023-07-08T21:06:08;49.00;;;43.40;;
16039;SDS011;8124;48.634;8.120;2023-07-08T21:11:17;48.15;;;43.05;;
16039;SDS011;8124;48.634;8.120;2023-07-08T21:16:23;47.70;;;42.70;;
16039;SDS011;8124;48.634;8.120;2023-07-08T21:21:27;47.80;;;42.70;;
16039;SDS011;8124;48.634;8.120;2023-07-08T21:26:30;48.40;;;43.20;;
16039;SDS011;8124;48.634;8.120;2023-07-08T21:31:34;48.55;;;43.22;;
16039;SDS011;8124;48.634;8.120;2023-07-08T21:36:37;48.28;;;43.17;;
16039;SDS011;8124;48.634;8.120;2023-07-08T21:41:47;48.50;;;43.40;;
16039;SDS011;8124;48.634;8.120;2023-07-08T21:46:52;49.17;;;43.97;;
16039;SDS011;8124;48.634;8.120;2023-07-08T21:51:55;48.20;;;43.00;;
16039;SDS011;8124;48.634;8.120;2023-07-08T21:56:58;48.47;;;43.38;;
16039;SDS011;8124;48.634;8.120;2023-07-08T22:02:02;48.10;;;43.00;;
16039;SDS011;8124;48.634;8.120;2023-07-08T22:07:07;48.45;;;43.25;;
16039;SDS011;8124;48.634;8.120;2023-07-08T22:12:17;49.15;;;43.00;;
16039;SDS011;8124;48.634;8.120;2023-07-08T22:17:21;48.28;;;43.22;;
16039;SDS011;8124;48.634;8.120;2023-07-08T22:22:24;47.90;;;42.72;;
16039;SDS011;8124;48.634;8.120;2023-07-08T22:27:27;47.70;;;42.65;;
16039;SDS011;8124;48.634;8.120;2023-07-08T22:32:32;47.80;;;42.70;;
16039;SDS011;8124;48.634;8.120;2023-07-08T22:37:35;51.55;;;43.03;;
16039;SDS011;8124;48.634;8.120;2023-07-08T22:42:38;48.22;;;42.58;;
16039;SDS011;8124;48.634;8.120;2023-07-08T22:47:44;47.92;;;42.88;;
16039;SDS011;8124;48.634;8.120;2023-07-08T22:52:49;48.70;;;43.50;;
16039;SDS011;8124;48.634;8.120;2023-07-08T22:57:54;47.95;;;42.67;;
16039;SDS011;8124;48.634;8.120;2023-07-08T23:03:02;51.63;;;43.00;;
16039;SDS011;8124;48.634;8.120;2023-07-08T23:08:07;47.92;;;42.90;;
16039;SDS011;8124;48.634;8.120;2023-07-08T23:13:17;47.33;;;42.33;;
16039;SDS011;8124;48.634;8.120;2023-07-08T23:18:22;46.95;;;41.95;;
16039;SDS011;8124;48.634;8.120;2023-07-08T23:23:25;47.50;;;42.45;;
16039;SDS011;8124;48.634;8.120;2023-07-08T23:28:28;47.22;;;42.22;;
16039;SDS011;8124;48.634;8.120;2023-07-08T23:33:32;47.88;;;42.60;;
16039;SDS011;8124;48.634;8.120;2023-07-08T23:38:35;47.17;;;42.17;;
16039;SDS011;8124;48.634;8.120;2023-07-08T23:43:39;47.78;;;42.60;;
16039;SDS011;8124;48.634;8.120;2023-07-08T23:48:47;48.70;;;43.13;;
16039;SDS011;8124;48.634;8.120;2023-07-08T23:53:50;47.70;;;42.50;;
16039;SDS011;8124;48.634;8.120;2023-07-08T23:58:53;47.22;;;42.13;;
